sensor_id;sensor_type;location;lat;lon;timestamp;temperature;humidity
63317;DHT22;49822;41.468;13.560;2022-12-18T00:02:00;9.30;99.90
63317;DHT22;49822;41.468;13.560;2022-12-18T00:04:28;9.10;99.80
63317;DHT22;49822;41.468;13.560;2022-12-18T00:06:56;9.20;99.80
63317;DHT22;49822;41.468;13.560;2022-12-18T00:09:24;9.20;99.70
63317;DHT22;49822;41.468;13.560;2022-12-18T00:12:06;9.10;99.60
63317;DHT22;49822;41.468;13.560;2022-12-18T00:14:42;9.10;99.50
63317;DHT22;49822;41.468;13.560;2022-12-18T00:17:09;9.20;99.60
63317;DHT22;49822;41.468;13.560;2022-12-18T00:19:36;9.30;99.60
63317;DHT22;49822;41.468;13.560;2022-12-18T00:22:04;9.40;99.60
63317;DHT22;49822;41.468;13.560;2022-12-18T00:24:33;9.40;99.50
63317;DHT22;49822;41.468;13.560;2022-12-18T00:27:00;9.50;99.50
63317;DHT22;49822;41.468;13.560;2022-12-18T00:29:28;9.50;99.40
63317;DHT22;49822;41.468;13.560;2022-12-18T00:31:56;9.50;99.10
63317;DHT22;49822;41.468;13.560;2022-12-18T00:34:24;9.40;99.00
63317;DHT22;49822;41.468;13.560;2022-12-18T00:36:51;9.40;98.90
63317;DHT22;49822;41.468;13.560;2022-12-18T00:39:20;9.20;98.70
63317;DHT22;49822;41.468;13.560;2022-12-18T00:41:48;9.20;98.80
63317;DHT22;49822;41.468;13.560;2022-12-18T00:44:34;9.40;99.10
63317;DHT22;49822;41.468;13.560;2022-12-18T00:47:01;9.40;99.30
63317;DHT22;49822;41.468;13.560;2022-12-18T00:49:29;9.40;98.90
63317;DHT22;49822;41.468;13.560;2022-12-18T00:51:57;9.20;98.60
63317;DHT22;49822;41.468;13.560;2022-12-18T00:54:25;9.20;98.70
63317;DHT22;49822;41.468;13.560;2022-12-18T00:56:52;9.20;98.90
63317;DHT22;49822;41.468;13.560;2022-12-18T00:59:22;9.40;99.00
63317;DHT22;49822;41.468;13.560;2022-12-18T01:01:50;9.40;99.00
63317;DHT22;49822;41.468;13.560;2022-12-18T01:04:20;9.50;99.00
63317;DHT22;49822;41.468;13.560;2022-12-18T01:06:47;9.60;99.00
63317;DHT22;49822;41.468;13.560;2022-12-18T01:09:14;9.50;98.60
63317;DHT22;49822;41.468;13.560;2022-12-18T01:11:42;9.40;98.40
63317;DHT22;49822;41.468;13.560;2022-12-18T01:14:10;9.30;98.10
63317;DHT22;49822;41.468;13.560;2022-12-18T01:16:37;9.20;98.20
63317;DHT22;49822;41.468;13.560;2022-12-18T01:19:05;9.30;98.30
63317;DHT22;49822;41.468;13.560;2022-12-18T01:21:32;9.40;98.30
63317;DHT22;49822;41.468;13.560;2022-12-18T01:24:03;9.30;98.30
63317;DHT22;49822;41.468;13.560;2022-12-18T01:26:31;9.40;98.30
63317;DHT22;49822;41.468;13.560;2022-12-18T01:28:58;9.30;98.20
63317;DHT22;49822;41.468;13.560;2022-12-18T01:31:29;9.40;98.30
63317;DHT22;49822;41.468;13.560;2022-12-18T01:34:00;9.40;98.60
63317;DHT22;49822;41.468;13.560;2022-12-18T01:36:34;9.50;98.50
63317;DHT22;49822;41.468;13.560;2022-12-18T01:39:04;9.50;98.40
63317;DHT22;49822;41.468;13.560;2022-12-18T01:41:33;9.40;98.30
63317;DHT22;49822;41.468;13.560;2022-12-18T01:44:55;9.50;98.30
63317;DHT22;49822;41.468;13.560;2022-12-18T01:55:45;9.80;98.50
63317;DHT22;49822;41.468;13.560;2022-12-18T01:58:15;9.80;98.50
63317;DHT22;49822;41.468;13.560;2022-12-18T02:01:09;9.80;98.50
63317;DHT22;49822;41.468;13.560;2022-12-18T02:03:37;9.80;98.40
63317;DHT22;49822;41.468;13.560;2022-12-18T02:11:17;9.80;98.50
63317;DHT22;49822;41.468;13.560;2022-12-18T02:16:51;9.80;98.50
63317;DHT22;49822;41.468;13.560;2022-12-18T02:19:39;9.80;98.40
63317;DHT22;49822;41.468;13.560;2022-12-18T02:22:21;9.80;98.40
63317;DHT22;49822;41.468;13.560;2022-12-18T02:27:39;9.40;98.00
63317;DHT22;49822;41.468;13.560;2022-12-18T02:30:08;9.40;98.20
63317;DHT22;49822;41.468;13.560;2022-12-18T02:32:43;9.40;98.40
63317;DHT22;49822;41.468;13.560;2022-12-18T02:35:17;9.40;98.60
63317;DHT22;49822;41.468;13.560;2022-12-18T02:37:51;9.50;98.90
63317;DHT22;49822;41.468;13.560;2022-12-18T02:40:21;9.60;99.00
63317;DHT22;49822;41.468;13.560;2022-12-18T02:42:49;9.60;99.10
63317;DHT22;49822;41.468;13.560;2022-12-18T02:45:18;9.50;98.80
63317;DHT22;49822;41.468;13.560;2022-12-18T02:47:48;9.60;98.90
63317;DHT22;49822;41.468;13.560;2022-12-18T02:53:17;9.70;99.00
63317;DHT22;49822;41.468;13.560;2022-12-18T02:59:00;9.70;98.80
63317;DHT22;49822;41.468;13.560;2022-12-18T03:01:43;9.70;98.90
63317;DHT22;49822;41.468;13.560;2022-12-18T03:04:20;9.80;99.10
63317;DHT22;49822;41.468;13.560;2022-12-18T03:06:52;9.80;99.00
63317;DHT22;49822;41.468;13.560;2022-12-18T03:09:36;9.80;98.90
63317;DHT22;49822;41.468;13.560;2022-12-18T03:12:20;9.70;98.80
63317;DHT22;49822;41.468;13.560;2022-12-18T03:15:06;9.60;98.80
63317;DHT22;49822;41.468;13.560;2022-12-18T03:17:46;9.50;98.70
63317;DHT22;49822;41.468;13.560;2022-12-18T03:20:20;9.40;98.80
63317;DHT22;49822;41.468;13.560;2022-12-18T03:22:52;9.40;99.00
63317;DHT22;49822;41.468;13.560;2022-12-18T03:25:21;9.20;99.20
63317;DHT22;49822;41.468;13.560;2022-12-18T03:27:56;9.20;99.40
63317;DHT22;49822;41.468;13.560;2022-12-18T03:30:29;9.10;99.60
63317;DHT22;49822;41.468;13.560;2022-12-18T03:33:16;9.10;99.70
63317;DHT22;49822;41.468;13.560;2022-12-18T03:35:49;9.00;99.80
63317;DHT22;49822;41.468;13.560;2022-12-18T03:38:18;9.00;99.80
63317;DHT22;49822;41.468;13.560;2022-12-18T03:41:18;9.00;99.80
63317;DHT22;49822;41.468;13.560;2022-12-18T03:52:45;9.20;99.70
63317;DHT22;49822;41.468;13.560;2022-12-18T03:55:17;9.30;99.70
63317;DHT22;49822;41.468;13.560;2022-12-18T03:57:49;9.30;99.70
63317;DHT22;49822;41.468;13.560;2022-12-18T04:00:19;9.20;99.50
63317;DHT22;49822;41.468;13.560;2022-12-18T04:03:04;9.30;99.50
63317;DHT22;49822;41.468;13.560;2022-12-18T04:05:41;9.40;99.50
63317;DHT22;49822;41.468;13.560;2022-12-18T04:08:10;9.30;99.30
63317;DHT22;49822;41.468;13.560;2022-12-18T04:10:43;9.20;99.10
63317;DHT22;49822;41.468;13.560;2022-12-18T04:13:12;9.20;99.30
63317;DHT22;49822;41.468;13.560;2022-12-18T04:15:41;9.40;99.30
63317;DHT22;49822;41.468;13.560;2022-12-18T04:18:14;9.10;99.00
63317;DHT22;49822;41.468;13.560;2022-12-18T04:20:43;9.00;99.20
63317;DHT22;49822;41.468;13.560;2022-12-18T04:23:11;9.20;99.50
63317;DHT22;49822;41.468;13.560;2022-12-18T04:25:39;9.00;99.10
63317;DHT22;49822;41.468;13.560;2022-12-18T04:28:10;8.80;99.10
63317;DHT22;49822;41.468;13.560;2022-12-18T04:30:39;8.80;99.30
63317;DHT22;49822;41.468;13.560;2022-12-18T04:33:12;8.70;99.40
63317;DHT22;49822;41.468;13.560;2022-12-18T04:35:40;8.50;99.30
63317;DHT22;49822;41.468;13.560;2022-12-18T04:38:08;8.40;99.50
63317;DHT22;49822;41.468;13.560;2022-12-18T04:40:38;8.40;99.80
63317;DHT22;49822;41.468;13.560;2022-12-18T04:43:16;8.50;99.90
63317;DHT22;49822;41.468;13.560;2022-12-18T04:45:46;8.60;99.90
63317;DHT22;49822;41.468;13.560;2022-12-18T04:48:15;8.40;99.90
63317;DHT22;49822;41.468;13.560;2022-12-18T04:50:42;8.40;99.90
63317;DHT22;49822;41.468;13.560;2022-12-18T04:53:10;8.30;99.90
63317;DHT22;49822;41.468;13.560;2022-12-18T04:55:37;8.10;99.90
63317;DHT22;49822;41.468;13.560;2022-12-18T04:58:05;8.00;99.90
63317;DHT22;49822;41.468;13.560;2022-12-18T05:00:33;8.00;99.90
63317;DHT22;49822;41.468;13.560;2022-12-18T05:03:03;8.00;99.90
63317;DHT22;49822;41.468;13.560;2022-12-18T05:05:30;8.00;99.90
63317;DHT22;49822;41.468;13.560;2022-12-18T05:07:58;8.00;99.90
63317;DHT22;49822;41.468;13.560;2022-12-18T05:10:26;8.10;99.90
63317;DHT22;49822;41.468;13.560;2022-12-18T05:12:58;8.10;99.90
63317;DHT22;49822;41.468;13.560;2022-12-18T05:15:30;8.20;99.90
63317;DHT22;49822;41.468;13.560;2022-12-18T05:18:02;8.20;99.90
63317;DHT22;49822;41.468;13.560;2022-12-18T05:20:30;8.30;99.90
63317;DHT22;49822;41.468;13.560;2022-12-18T05:22:57;8.30;99.90
63317;DHT22;49822;41.468;13.560;2022-12-18T05:25:25;8.10;99.90
63317;DHT22;49822;41.468;13.560;2022-12-18T05:27:52;8.10;99.90
63317;DHT22;49822;41.468;13.560;2022-12-18T05:30:20;8.20;99.90
63317;DHT22;49822;41.468;13.560;2022-12-18T05:32:50;8.30;99.90
63317;DHT22;49822;41.468;13.560;2022-12-18T05:35:19;8.10;99.90
63317;DHT22;49822;41.468;13.560;2022-12-18T05:37:47;7.90;99.90
63317;DHT22;49822;41.468;13.560;2022-12-18T05:40:14;7.80;99.90
63317;DHT22;49822;41.468;13.560;2022-12-18T05:42:42;7.80;99.90
63317;DHT22;49822;41.468;13.560;2022-12-18T05:45:09;7.80;99.90
63317;DHT22;49822;41.468;13.560;2022-12-18T05:47:36;7.90;99.90
63317;DHT22;49822;41.468;13.560;2022-12-18T05:50:06;8.00;99.90
63317;DHT22;49822;41.468;13.560;2022-12-18T05:52:33;8.00;99.90
63317;DHT22;49822;41.468;13.560;2022-12-18T05:55:01;8.00;99.90
63317;DHT22;49822;41.468;13.560;2022-12-18T05:57:28;8.00;99.90
63317;DHT22;49822;41.468;13.560;2022-12-18T05:59:56;8.00;99.90
63317;DHT22;49822;41.468;13.560;2022-12-18T06:02:24;8.00;99.90
63317;DHT22;49822;41.468;13.560;2022-12-18T06:04:51;7.90;99.90
63317;DHT22;49822;41.468;13.560;2022-12-18T06:07:19;8.00;99.90
63317;DHT22;49822;41.468;13.560;2022-12-18T06:09:47;8.00;99.90
63317;DHT22;49822;41.468;13.560;2022-12-18T06:12:14;8.10;99.90
63317;DHT22;49822;41.468;13.560;2022-12-18T06:14:41;8.30;99.90
63317;DHT22;49822;41.468;13.560;2022-12-18T06:17:09;8.20;99.90
63317;DHT22;49822;41.468;13.560;2022-12-18T06:19:36;8.00;99.90
63317;DHT22;49822;41.468;13.560;2022-12-18T06:22:04;7.70;99.90
63317;DHT22;49822;41.468;13.560;2022-12-18T06:24:31;7.70;99.90
63317;DHT22;49822;41.468;13.560;2022-12-18T06:26:58;8.00;99.90
63317;DHT22;49822;41.468;13.560;2022-12-18T06:29:26;8.00;99.90
63317;DHT22;49822;41.468;13.560;2022-12-18T06:31:53;7.90;99.90
63317;DHT22;49822;41.468;13.560;2022-12-18T06:34:21;7.90;99.90
63317;DHT22;49822;41.468;13.560;2022-12-18T06:36:48;7.70;99.90
63317;DHT22;49822;41.468;13.560;2022-12-18T06:39:16;7.60;99.90
63317;DHT22;49822;41.468;13.560;2022-12-18T06:41:43;7.60;99.90
63317;DHT22;49822;41.468;13.560;2022-12-18T06:44:11;7.60;99.90
63317;DHT22;49822;41.468;13.560;2022-12-18T06:46:39;7.60;99.90
63317;DHT22;49822;41.468;13.560;2022-12-18T06:49:07;7.60;99.90
63317;DHT22;49822;41.468;13.560;2022-12-18T06:51:36;7.60;99.90
63317;DHT22;49822;41.468;13.560;2022-12-18T06:54:04;7.50;99.90
63317;DHT22;49822;41.468;13.560;2022-12-18T06:56:31;7.50;99.90
63317;DHT22;49822;41.468;13.560;2022-12-18T06:58:58;7.60;99.90
63317;DHT22;49822;41.468;13.560;2022-12-18T07:01:26;7.60;99.90
63317;DHT22;49822;41.468;13.560;2022-12-18T07:03:55;7.60;99.90
63317;DHT22;49822;41.468;13.560;2022-12-18T07:06:25;7.80;99.90
63317;DHT22;49822;41.468;13.560;2022-12-18T07:08:54;8.00;99.90
63317;DHT22;49822;41.468;13.560;2022-12-18T07:11:23;7.80;99.90
63317;DHT22;49822;41.468;13.560;2022-12-18T07:13:52;7.50;99.90
63317;DHT22;49822;41.468;13.560;2022-12-18T07:16:21;7.70;99.90
63317;DHT22;49822;41.468;13.560;2022-12-18T07:18:53;7.80;99.90
63317;DHT22;49822;41.468;13.560;2022-12-18T07:21:22;8.00;99.90
63317;DHT22;49822;41.468;13.560;2022-12-18T07:23:50;8.00;99.90
63317;DHT22;49822;41.468;13.560;2022-12-18T07:26:20;8.10;99.90
63317;DHT22;49822;41.468;13.560;2022-12-18T07:28:48;8.20;99.90
63317;DHT22;49822;41.468;13.560;2022-12-18T07:31:21;8.20;99.90
63317;DHT22;49822;41.468;13.560;2022-12-18T07:33:50;8.30;99.90
63317;DHT22;49822;41.468;13.560;2022-12-18T07:36:19;8.30;99.90
63317;DHT22;49822;41.468;13.560;2022-12-18T07:38:48;8.40;99.90
63317;DHT22;49822;41.468;13.560;2022-12-18T07:41:16;8.50;99.90
63317;DHT22;49822;41.468;13.560;2022-12-18T07:43:43;8.60;99.90
63317;DHT22;49822;41.468;13.560;2022-12-18T07:46:11;8.30;99.90
63317;DHT22;49822;41.468;13.560;2022-12-18T07:48:41;8.00;99.90
63317;DHT22;49822;41.468;13.560;2022-12-18T07:51:14;7.80;99.80
63317;DHT22;49822;41.468;13.560;2022-12-18T07:53:42;7.80;99.80
63317;DHT22;49822;41.468;13.560;2022-12-18T07:56:11;7.80;99.60
63317;DHT22;49822;41.468;13.560;2022-12-18T07:58:57;8.00;99.90
63317;DHT22;49822;41.468;13.560;2022-12-18T08:01:26;8.10;99.80
63317;DHT22;49822;41.468;13.560;2022-12-18T08:03:54;8.00;99.40
63317;DHT22;49822;41.468;13.560;2022-12-18T08:06:22;8.00;99.30
63317;DHT22;49822;41.468;13.560;2022-12-18T08:08:52;8.10;99.30
63317;DHT22;49822;41.468;13.560;2022-12-18T08:11:20;8.20;99.40
63317;DHT22;49822;41.468;13.560;2022-12-18T08:13:49;8.40;99.40
63317;DHT22;49822;41.468;13.560;2022-12-18T08:16:19;8.50;99.30
63317;DHT22;49822;41.468;13.560;2022-12-18T08:18:47;8.60;99.30
63317;DHT22;49822;41.468;13.560;2022-12-18T08:21:17;8.60;98.90
63317;DHT22;49822;41.468;13.560;2022-12-18T08:23:47;8.60;98.50
63317;DHT22;49822;41.468;13.560;2022-12-18T08:26:17;8.80;98.50
63317;DHT22;49822;41.468;13.560;2022-12-18T08:28:45;8.90;98.30
63317;DHT22;49822;41.468;13.560;2022-12-18T08:31:13;8.90;97.90
63317;DHT22;49822;41.468;13.560;2022-12-18T08:33:42;8.80;97.40
63317;DHT22;49822;41.468;13.560;2022-12-18T08:36:10;8.60;96.70
63317;DHT22;49822;41.468;13.560;2022-12-18T08:38:38;8.60;97.00
63317;DHT22;49822;41.468;13.560;2022-12-18T08:41:07;8.90;97.20
63317;DHT22;49822;41.468;13.560;2022-12-18T08:43:37;8.90;96.70
63317;DHT22;49822;41.468;13.560;2022-12-18T08:46:34;8.90;96.50
63317;DHT22;49822;41.468;13.560;2022-12-18T08:49:03;8.60;96.20
63317;DHT22;49822;41.468;13.560;2022-12-18T08:51:31;8.50;96.40
63317;DHT22;49822;41.468;13.560;2022-12-18T08:53:59;8.50;96.80
63317;DHT22;49822;41.468;13.560;2022-12-18T08:56:27;8.40;96.50
63317;DHT22;49822;41.468;13.560;2022-12-18T08:58:55;8.60;97.10
63317;DHT22;49822;41.468;13.560;2022-12-18T09:01:29;8.80;97.40
63317;DHT22;49822;41.468;13.560;2022-12-18T09:03:58;8.90;97.60
63317;DHT22;49822;41.468;13.560;2022-12-18T09:06:26;9.20;97.70
63317;DHT22;49822;41.468;13.560;2022-12-18T09:08:53;9.20;97.20
63317;DHT22;49822;41.468;13.560;2022-12-18T09:11:24;9.30;96.80
63317;DHT22;49822;41.468;13.560;2022-12-18T09:13:53;9.40;96.40
63317;DHT22;49822;41.468;13.560;2022-12-18T09:16:23;9.40;95.90
63317;DHT22;49822;41.468;13.560;2022-12-18T09:18:58;9.30;95.30
63317;DHT22;49822;41.468;13.560;2022-12-18T09:21:31;9.20;94.80
63317;DHT22;49822;41.468;13.560;2022-12-18T09:24:03;9.10;95.40
63317;DHT22;49822;41.468;13.560;2022-12-18T09:26:34;9.10;95.60
63317;DHT22;49822;41.468;13.560;2022-12-18T09:29:02;9.20;96.00
63317;DHT22;49822;41.468;13.560;2022-12-18T09:31:30;9.20;95.80
63317;DHT22;49822;41.468;13.560;2022-12-18T09:33:58;9.30;95.60
63317;DHT22;49822;41.468;13.560;2022-12-18T09:36:26;9.50;95.70
63317;DHT22;49822;41.468;13.560;2022-12-18T09:38:59;9.70;95.70
63317;DHT22;49822;41.468;13.560;2022-12-18T09:41:46;9.90;95.50
63317;DHT22;49822;41.468;13.560;2022-12-18T09:47:08;10.10;94.60
63317;DHT22;49822;41.468;13.560;2022-12-18T09:49:45;10.20;94.20
63317;DHT22;49822;41.468;13.560;2022-12-18T09:57:26;9.50;93.10
63317;DHT22;49822;41.468;13.560;2022-12-18T10:00:08;9.50;94.70
63317;DHT22;49822;41.468;13.560;2022-12-18T10:02:38;10.00;95.90
63317;DHT22;49822;41.468;13.560;2022-12-18T10:05:13;10.10;95.20
63317;DHT22;49822;41.468;13.560;2022-12-18T10:10:52;10.40;93.00
63317;DHT22;49822;41.468;13.560;2022-12-18T10:13:42;10.40;93.40
63317;DHT22;49822;41.468;13.560;2022-12-18T10:16:40;10.60;93.00
63317;DHT22;49822;41.468;13.560;2022-12-18T10:19:50;10.90;92.80
63317;DHT22;49822;41.468;13.560;2022-12-18T10:27:48;11.30;91.40
63317;DHT22;49822;41.468;13.560;2022-12-18T10:30:22;11.40;91.20
63317;DHT22;49822;41.468;13.560;2022-12-18T10:32:52;11.50;90.40
63317;DHT22;49822;41.468;13.560;2022-12-18T10:35:26;11.50;90.00
63317;DHT22;49822;41.468;13.560;2022-12-18T10:40:54;11.50;90.50
63317;DHT22;49822;41.468;13.560;2022-12-18T10:43:28;11.40;91.00
63317;DHT22;49822;41.468;13.560;2022-12-18T10:46:16;11.40;91.40
63317;DHT22;49822;41.468;13.560;2022-12-18T10:51:34;11.30;91.80
63317;DHT22;49822;41.468;13.560;2022-12-18T10:54:05;11.30;91.90
63317;DHT22;49822;41.468;13.560;2022-12-18T10:56:35;11.20;91.40
63317;DHT22;49822;41.468;13.560;2022-12-18T10:59:08;11.30;92.00
63317;DHT22;49822;41.468;13.560;2022-12-18T11:01:52;11.20;91.90
63317;DHT22;49822;41.468;13.560;2022-12-18T11:04:30;11.10;92.20
63317;DHT22;49822;41.468;13.560;2022-12-18T11:07:06;11.10;91.60
63317;DHT22;49822;41.468;13.560;2022-12-18T11:09:36;11.10;92.20
63317;DHT22;49822;41.468;13.560;2022-12-18T11:12:16;11.30;92.60
63317;DHT22;49822;41.468;13.560;2022-12-18T11:14:47;11.40;92.70
63317;DHT22;49822;41.468;13.560;2022-12-18T11:17:42;11.50;91.50
63317;DHT22;49822;41.468;13.560;2022-12-18T11:20:32;11.50;91.40
63317;DHT22;49822;41.468;13.560;2022-12-18T11:23:21;11.70;92.00
63317;DHT22;49822;41.468;13.560;2022-12-18T11:25:59;11.90;90.50
63317;DHT22;49822;41.468;13.560;2022-12-18T11:36:45;12.20;88.60
63317;DHT22;49822;41.468;13.560;2022-12-18T11:39:36;11.90;89.40
63317;DHT22;49822;41.468;13.560;2022-12-18T11:44:55;11.80;91.10
63317;DHT22;49822;41.468;13.560;2022-12-18T11:50:14;12.00;90.10
63317;DHT22;49822;41.468;13.560;2022-12-18T11:52:43;12.00;90.00
63317;DHT22;49822;41.468;13.560;2022-12-18T12:01:00;12.50;87.90
63317;DHT22;49822;41.468;13.560;2022-12-18T12:06:22;12.90;86.60
63317;DHT22;49822;41.468;13.560;2022-12-18T12:09:20;13.00;85.80
63317;DHT22;49822;41.468;13.560;2022-12-18T12:12:23;13.10;85.90
63317;DHT22;49822;41.468;13.560;2022-12-18T12:16:01;13.00;86.00
63317;DHT22;49822;41.468;13.560;2022-12-18T12:21:12;13.00;85.90
63317;DHT22;49822;41.468;13.560;2022-12-18T12:29:57;13.00;85.40
63317;DHT22;49822;41.468;13.560;2022-12-18T12:38:06;13.30;86.10
63317;DHT22;49822;41.468;13.560;2022-12-18T12:40:49;14.10;84.80
63317;DHT22;49822;41.468;13.560;2022-12-18T12:43:31;14.90;80.60
63317;DHT22;49822;41.468;13.560;2022-12-18T12:46:10;15.30;77.50
63317;DHT22;49822;41.468;13.560;2022-12-18T12:51:21;15.80;77.60
63317;DHT22;49822;41.468;13.560;2022-12-18T12:53:49;16.10;75.70
63317;DHT22;49822;41.468;13.560;2022-12-18T12:56:21;16.50;75.10
63317;DHT22;49822;41.468;13.560;2022-12-18T13:04:13;17.40;70.80
63317;DHT22;49822;41.468;13.560;2022-12-18T13:06:53;17.40;71.00
63317;DHT22;49822;41.468;13.560;2022-12-18T13:09:24;17.40;72.10
63317;DHT22;49822;41.468;13.560;2022-12-18T13:11:51;17.20;70.50
63317;DHT22;49822;41.468;13.560;2022-12-18T13:14:39;17.00;71.70
63317;DHT22;49822;41.468;13.560;2022-12-18T13:17:29;16.70;71.80
63317;DHT22;49822;41.468;13.560;2022-12-18T13:20:11;16.70;72.90
63317;DHT22;49822;41.468;13.560;2022-12-18T13:22:49;17.00;70.80
63317;DHT22;49822;41.468;13.560;2022-12-18T13:25:28;16.90;72.30
63317;DHT22;49822;41.468;13.560;2022-12-18T13:28:01;17.30;70.90
63317;DHT22;49822;41.468;13.560;2022-12-18T13:41:02;19.90;63.50
63317;DHT22;49822;41.468;13.560;2022-12-18T13:43:34;21.00;60.40
63317;DHT22;49822;41.468;13.560;2022-12-18T13:51:54;21.40;55.70
63317;DHT22;49822;41.468;13.560;2022-12-18T13:54:35;21.40;56.20
63317;DHT22;49822;41.468;13.560;2022-12-18T13:57:05;21.10;57.20
63317;DHT22;49822;41.468;13.560;2022-12-18T13:59:40;21.30;56.80
63317;DHT22;49822;41.468;13.560;2022-12-18T14:02:16;21.60;54.40
63317;DHT22;49822;41.468;13.560;2022-12-18T14:04:49;21.50;55.50
63317;DHT22;49822;41.468;13.560;2022-12-18T14:07:25;21.00;56.90
63317;DHT22;49822;41.468;13.560;2022-12-18T14:10:02;21.10;58.00
63317;DHT22;49822;41.468;13.560;2022-12-18T14:12:51;22.10;56.10
63317;DHT22;49822;41.468;13.560;2022-12-18T14:15:32;23.10;51.10
63317;DHT22;49822;41.468;13.560;2022-12-18T14:20:45;20.10;58.90
63317;DHT22;49822;41.468;13.560;2022-12-18T14:23:45;20.30;58.30
63317;DHT22;49822;41.468;13.560;2022-12-18T14:26:27;20.50;57.70
63317;DHT22;49822;41.468;13.560;2022-12-18T14:28:59;20.60;57.00
63317;DHT22;49822;41.468;13.560;2022-12-18T14:31:30;21.20;55.80
63317;DHT22;49822;41.468;13.560;2022-12-18T14:33:58;21.70;53.00
63317;DHT22;49822;41.468;13.560;2022-12-18T14:36:28;22.30;52.40
63317;DHT22;49822;41.468;13.560;2022-12-18T14:38:58;22.70;48.90
63317;DHT22;49822;41.468;13.560;2022-12-18T14:41:37;19.80;54.90
63317;DHT22;49822;41.468;13.560;2022-12-18T14:44:07;17.50;60.30
63317;DHT22;49822;41.468;13.560;2022-12-18T14:46:38;16.30;63.40
63317;DHT22;49822;41.468;13.560;2022-12-18T14:49:34;14.20;70.70
63317;DHT22;49822;41.468;13.560;2022-12-18T14:52:05;13.60;77.80
63317;DHT22;49822;41.468;13.560;2022-12-18T14:54:35;13.50;75.50
63317;DHT22;49822;41.468;13.560;2022-12-18T14:57:15;12.90;76.60
63317;DHT22;49822;41.468;13.560;2022-12-18T14:59:46;12.40;79.50
63317;DHT22;49822;41.468;13.560;2022-12-18T15:02:25;12.30;80.00
63317;DHT22;49822;41.468;13.560;2022-12-18T15:07:43;12.50;83.40
63317;DHT22;49822;41.468;13.560;2022-12-18T15:10:15;12.50;81.10
63317;DHT22;49822;41.468;13.560;2022-12-18T15:12:49;12.00;80.30
63317;DHT22;49822;41.468;13.560;2022-12-18T15:23:36;11.40;82.60
63317;DHT22;49822;41.468;13.560;2022-12-18T15:26:20;11.30;84.00
63317;DHT22;49822;41.468;13.560;2022-12-18T15:28:51;11.40;84.10
63317;DHT22;49822;41.468;13.560;2022-12-18T15:31:30;11.30;84.70
63317;DHT22;49822;41.468;13.560;2022-12-18T15:36:34;11.30;83.60
63317;DHT22;49822;41.468;13.560;2022-12-18T15:39:04;11.10;85.50
63317;DHT22;49822;41.468;13.560;2022-12-18T15:41:34;11.30;85.80
63317;DHT22;49822;41.468;13.560;2022-12-18T15:44:03;11.40;86.10
63317;DHT22;49822;41.468;13.560;2022-12-18T15:46:47;11.50;86.70
63317;DHT22;49822;41.468;13.560;2022-12-18T15:49:14;11.50;85.90
63317;DHT22;49822;41.468;13.560;2022-12-18T15:51:42;11.60;85.80
63317;DHT22;49822;41.468;13.560;2022-12-18T15:54:13;11.50;85.10
63317;DHT22;49822;41.468;13.560;2022-12-18T15:56:43;11.20;84.20
63317;DHT22;49822;41.468;13.560;2022-12-18T15:59:29;10.80;85.20
63317;DHT22;49822;41.468;13.560;2022-12-18T16:01:57;10.80;86.50
63317;DHT22;49822;41.468;13.560;2022-12-18T16:04:28;10.80;86.70
63317;DHT22;49822;41.468;13.560;2022-12-18T16:06:56;10.80;86.80
63317;DHT22;49822;41.468;13.560;2022-12-18T16:09:41;10.60;85.20
63317;DHT22;49822;41.468;13.560;2022-12-18T16:12:19;10.00;87.00
63317;DHT22;49822;41.468;13.560;2022-12-18T16:14:49;10.10;88.40
63317;DHT22;49822;41.468;13.560;2022-12-18T16:17:18;10.20;88.90
63317;DHT22;49822;41.468;13.560;2022-12-18T16:19:46;10.40;90.20
63317;DHT22;49822;41.468;13.560;2022-12-18T16:22:22;10.60;90.20
63317;DHT22;49822;41.468;13.560;2022-12-18T16:24:51;10.70;89.70
63317;DHT22;49822;41.468;13.560;2022-12-18T16:27:20;10.70;88.70
63317;DHT22;49822;41.468;13.560;2022-12-18T16:29:48;10.80;88.70
63317;DHT22;49822;41.468;13.560;2022-12-18T16:32:20;10.90;88.50
63317;DHT22;49822;41.468;13.560;2022-12-18T16:34:49;10.60;87.00
63317;DHT22;49822;41.468;13.560;2022-12-18T16:37:16;10.30;84.10
63317;DHT22;49822;41.468;13.560;2022-12-18T16:39:44;9.70;85.50
63317;DHT22;49822;41.468;13.560;2022-12-18T16:42:16;9.30;88.00
63317;DHT22;49822;41.468;13.560;2022-12-18T16:44:48;9.30;90.80
63317;DHT22;49822;41.468;13.560;2022-12-18T16:47:16;9.40;91.30
63317;DHT22;49822;41.468;13.560;2022-12-18T16:49:44;9.50;92.20
63317;DHT22;49822;41.468;13.560;2022-12-18T16:52:13;9.80;92.70
63317;DHT22;49822;41.468;13.560;2022-12-18T16:54:40;9.90;91.20
63317;DHT22;49822;41.468;13.560;2022-12-18T16:57:12;9.20;88.10
63317;DHT22;49822;41.468;13.560;2022-12-18T16:59:44;8.90;91.20
63317;DHT22;49822;41.468;13.560;2022-12-18T17:02:14;9.00;93.00
63317;DHT22;49822;41.468;13.560;2022-12-18T17:04:45;9.40;93.80
63317;DHT22;49822;41.468;13.560;2022-12-18T17:07:13;9.60;93.60
63317;DHT22;49822;41.468;13.560;2022-12-18T17:09:41;9.80;93.70
63317;DHT22;49822;41.468;13.560;2022-12-18T17:12:09;10.00;93.10
63317;DHT22;49822;41.468;13.560;2022-12-18T17:14:36;9.50;89.00
63317;DHT22;49822;41.468;13.560;2022-12-18T17:17:04;9.40;89.50
63317;DHT22;49822;41.468;13.560;2022-12-18T17:19:50;9.40;90.00
63317;DHT22;49822;41.468;13.560;2022-12-18T17:22:18;9.40;89.90
63317;DHT22;49822;41.468;13.560;2022-12-18T17:24:47;9.40;89.70
63317;DHT22;49822;41.468;13.560;2022-12-18T17:27:15;9.10;86.90
63317;DHT22;49822;41.468;13.560;2022-12-18T17:29:44;8.80;88.10
63317;DHT22;49822;41.468;13.560;2022-12-18T17:32:15;8.80;90.40
63317;DHT22;49822;41.468;13.560;2022-12-18T17:34:44;9.00;91.60
63317;DHT22;49822;41.468;13.560;2022-12-18T17:37:16;9.20;91.90
63317;DHT22;49822;41.468;13.560;2022-12-18T17:39:44;9.20;91.00
63317;DHT22;49822;41.468;13.560;2022-12-18T17:42:11;9.00;89.90
63317;DHT22;49822;41.468;13.560;2022-12-18T17:44:45;8.80;89.90
63317;DHT22;49822;41.468;13.560;2022-12-18T17:47:20;8.80;91.70
63317;DHT22;49822;41.468;13.560;2022-12-18T17:49:47;9.00;93.00
63317;DHT22;49822;41.468;13.560;2022-12-18T17:52:15;8.90;89.70
63317;DHT22;49822;41.468;13.560;2022-12-18T17:54:43;8.80;91.10
63317;DHT22;49822;41.468;13.560;2022-12-18T17:57:11;8.90;91.50
63317;DHT22;49822;41.468;13.560;2022-12-18T17:59:38;8.70;90.10
63317;DHT22;49822;41.468;13.560;2022-12-18T18:02:06;8.50;90.80
63317;DHT22;49822;41.468;13.560;2022-12-18T18:04:34;8.60;91.90
63317;DHT22;49822;41.468;13.560;2022-12-18T18:07:02;8.70;91.90
63317;DHT22;49822;41.468;13.560;2022-12-18T18:09:30;8.60;91.60
63317;DHT22;49822;41.468;13.560;2022-12-18T18:11:59;8.70;91.50